Terminal Aerodrome Forecast
Issued by NWS Columbia, SC

Home | Current Version | Previous Version | Text Only | Print | Product List | Glossary On
Versions: 1 2 3 4 5 6 7 8 9 10 11 12 13 14 15 16 17 18 19 20 21 22 23 24 25 26
636
FTUS42 KCAE 061936 AAA
TAFCAE
TAF AMD
KCAE 061936Z 0620/0718 07010KT P6SM VCSH BKN060
      TEMPO 0621/0624 6SM -RA
     FM070000 02008KT P6SM VCSH OVC045
     FM070600 02009KT P6SM VCSH OVC035
     FM070900 01010KT 6SM -RASN OVC030
     FM071400 01010KT P6SM BKN035=

USA.gov is the U.S. government's official web portal to all federal, state and local government web resources and services.